Terminal Aerodrome Forecast
Issued by NWS

Home | Current Version | Previous Version | Text Only | Print | Product List | Glossary On
Versions: 1 2 3 4 5 6 7 8 9 10 11 12 13 14 15 16
000
FTUS43 KGRB 261720
TAFAUW
TAF
KAUW 261720Z 2618/2718 24007KT P6SM VCSH SCT011 BKN040
      TEMPO 2618/2621 5SM -SHRA BR BKN011
     FM262100 27010KT P6SM SCT012 OVC020
     FM270500 29008KT P6SM SCT006 OVC012
      TEMPO 2708/2712 BKN006
     FM271400 31010KT P6SM SCT015 OVC040=

USA.gov is the U.S. government's official web portal to all federal, state and local government web resources and services.